Latest Weather Observations for Grove

IDT60801

Issued at 7:31 am EST Friday 4 September 2015 (issued every 30 minutes, with the page automatically refreshed every 10 minutes)

About weather observations | Map of weather stations | Latest weather observations for TAS | Other Formats
Station Details ID: 094220 Name: GROVE (RESEARCH STATION) Lat: -42.99 Lon: 147.07 Height: 65.0 m
Data from the previous 72 hours. | See also: Recent months at Grove
Date/Time
EST
Temp
°C
App
Temp
°C
Dew
Point
Rel
Hum
%
Delta-T
°C
Wind Press
QNH
hPa
Press
MSL
hPa
Rain
since 9 am
mm
Dir
 
Spd
km/h
Gust
km/h
Spd
kts
Gust
kts
04/07:30am 0.8 -2.3 0.3 96 0.2 SSW 6 9 3 5 - - 0.0
04/07:00am 0.0 - - - - ESE 4 7 2 4 - - 0.0
04/06:30am -0.4 - - - - NE 7 15 4 8 - - 0.0
04/06:00am -1.3 - - - - NNW 2 7 1 4 - - 0.0
04/05:30am -0.9 - - - - CALM 0 0 0 0 - - 0.0
04/05:00am -1.3 - - - - SW 2 9 1 5 - - 0.0
04/04:30am -0.5 - - - - CALM 0 6 0 3 - - 0.0
04/04:00am -1.4 - - - - NE 7 11 4 6 - - 0.0
04/03:30am -1.4 - - - - NNE 6 9 3 5 - - 0.0
04/03:00am -0.9 - - - - NNE 6 9 3 5 - - 0.0
04/02:30am -0.8 - - - - NNE 6 9 3 5 - - 0.0
04/02:00am -0.6 - - - - NNE 6 7 3 4 - - 0.0
04/01:30am -0.2 - - - - NNE 9 11 5 6 - - 0.0
04/01:00am -0.4 - - - - NNE 7 9 4 5 - - 0.0
04/12:30am -0.1 - - - - CALM 0 0 0 0 - - 0.0
04/12:00am 0.1 - - - - NE 7 7 4 4 - - 0.0
 
Date/Time
EST
Temp
°C
App
Temp
°C
Dew
Point
Rel
Hum
%
Delta-T
°C
Wind Press
QNH
hPa
Press
MSL
hPa
Rain
since 9 am
mm
Dir
 
Spd
km/h
Gust
km/h
Spd
kts
Gust
kts
03/11:30pm 0.2 - - - - NE 6 7 3 4 - - 0.0
03/11:00pm 1.0 -1.7 0.5 96 0.2 NE 4 6 2 3 - - 0.0
03/10:30pm 1.3 -0.6 0.5 94 0.3 CALM 0 0 0 0 - - 0.0
03/10:00pm 1.6 -1.5 1.3 98 0.1 N 7 7 4 4 - - 0.0
03/09:30pm 2.0 -0.9 1.2 94 0.3 NNE 6 11 3 6 - - 0.0
03/09:00pm 2.5 0.4 1.5 93 0.4 NE 2 9 1 5 - - 0.0
03/08:30pm 3.3 0.5 2.0 91 0.5 NNE 6 7 3 4 - - 0.0
03/08:00pm 3.4 1.0 1.9 90 0.6 E 4 6 2 3 - - 0.0
03/07:30pm 4.1 1.0 1.6 84 1.0 NE 7 11 4 6 - - 0.0
03/07:00pm 4.2 0.8 1.9 85 0.9 NNE 9 13 5 7 - - 0.0
03/06:30pm 5.0 2.1 1.7 79 1.3 NW 6 11 3 6 - - 0.0
03/06:00pm 6.1 3.1 1.1 70 2.0 W 6 11 3 6 - - 0.0
03/05:30pm 7.7 3.9 -0.9 54 3.3 SW 9 15 5 8 - - 0.0
03/05:00pm 8.6 4.0 -1.3 50 3.8 SW 13 20 7 11 - - 0.0
03/04:30pm 9.2 4.5 -1.8 46 4.2 SSW 13 22 7 12 - - 0.0
03/04:00pm 9.7 5.1 -1.0 47 4.2 SSW 13 28 7 15 - - 0.0
03/03:30pm 10.2 5.8 0.1 49 4.1 SSW 13 24 7 13 - - 0.0
03/03:00pm 9.5 4.5 -1.3 47 4.2 SSW 15 22 8 12 - - 0.0
03/02:30pm 11.0 6.4 -1.1 43 4.8 SW 13 24 7 13 - - 0.0
03/02:00pm 9.9 4.9 -1.0 46 4.3 SSW 15 24 8 13 - - 0.0
03/01:30pm 10.2 6.2 0.4 50 4.0 S 11 20 6 11 - - 0.0
03/01:00pm 9.3 5.5 1.9 60 3.1 WSW 11 19 6 10 - - 0.0
03/12:30pm 9.8 6.2 0.5 52 3.8 WSW 9 17 5 9 - - 0.0
03/12:00pm 9.8 6.5 2.5 60 3.1 WSW 9 20 5 11 - - 0.0
03/11:30am 9.8 5.9 1.1 54 3.6 WSW 11 22 6 12 - - 0.0
03/11:00am 9.4 6.1 2.3 61 3.0 WSW 9 15 5 8 - - 0.0
03/10:30am 9.1 6.5 3.3 67 2.5 SSW 6 11 3 6 - - 0.0
03/10:00am 8.5 5.9 4.4 75 1.8 WNW 7 11 4 6 - - 0.0
03/09:30am 8.3 5.8 4.7 78 1.6 N 7 11 4 6 - - 0.0
03/09:00am 7.7 5.8 5.0 83 1.2 SW 4 9 2 5 - - 3.0
03/08:30am 7.4 5.1 5.8 90 0.7 WSW 7 11 4 6 - - 3.0
03/08:00am 7.3 5.1 6.0 91 0.6 SSW 7 11 4 6 - - 3.0
03/07:30am 7.0 4.8 6.1 94 0.4 SSW 7 11 4 6 - - 3.0
03/07:00am 7.1 5.1 6.9 99 0.1 SW 7 11 4 6 - - 2.6
03/06:30am 7.3 5.5 7.1 99 0.1 SE 6 7 3 4 - - 2.4
03/06:00am 7.2 6.5 7.0 99 0.1 CALM 0 0 0 0 - - 2.4
03/05:30am 7.4 6.8 7.2 99 0.1 CALM 0 0 0 0 - - 2.4
03/05:00am 7.5 6.5 7.3 99 0.1 SE 2 9 1 5 - - 2.2
03/04:30am 7.7 6.7 7.5 99 0.1 WNW 2 9 1 5 - - 2.2
03/04:00am 7.8 6.1 7.6 99 0.1 SW 6 6 3 3 - - 2.2
03/03:30am 7.5 6.9 7.3 99 0.1 CALM 0 0 0 0 - - 1.6
03/03:00am 7.4 6.0 7.2 99 0.1 N 4 7 2 4 - - 1.4
03/02:30am 7.3 5.4 6.9 97 0.2 WSW 6 9 3 5 - - 0.8
03/02:00am 7.1 6.4 6.9 99 0.1 CALM 0 0 0 0 - - 0.0
03/01:30am 7.0 6.3 6.8 99 0.1 CALM 0 0 0 0 - - 0.0
03/01:00am 7.0 6.2 6.6 97 0.2 CALM 0 0 0 0 - - 0.0
03/12:30am 6.9 4.8 6.7 99 0.1 NNE 7 9 4 5 - - 0.0
03/12:00am 7.1 6.0 6.7 97 0.2 WSW 2 7 1 4 - - 0.0
 
Date/Time
EST
Temp
°C
App
Temp
°C
Dew
Point
Rel
Hum
%
Delta-T
°C
Wind Press
QNH
hPa
Press
MSL
hPa
Rain
since 9 am
mm
Dir
 
Spd
km/h
Gust
km/h
Spd
kts
Gust
kts
02/11:30pm 7.1 6.3 6.7 97 0.2 CALM 0 0 0 0 - - 0.0
02/11:00pm 7.2 5.7 6.8 97 0.2 W 4 9 2 5 - - 0.0
02/10:30pm 7.4 6.6 6.7 95 0.3 CALM 0 6 0 3 - - 0.0
02/10:00pm 7.4 5.3 6.7 95 0.3 NE 7 9 4 5 - - 0.0
02/09:30pm 7.7 6.9 6.6 93 0.5 CALM 0 2 0 1 - - 0.0
02/09:00pm 7.6 6.4 6.5 93 0.5 NE 2 6 1 3 - - 0.0
02/08:30pm 7.7 5.7 6.4 91 0.6 NE 6 7 3 4 - - 0.0
02/08:00pm 7.6 6.7 6.1 90 0.7 CALM 0 0 0 0 - - 0.0
02/07:30pm 8.1 7.2 6.1 87 0.9 CALM 0 6 0 3 - - 0.0
02/07:00pm 8.3 7.0 5.9 85 1.1 WSW 2 6 1 3 - - 0.0
02/06:30pm 8.6 7.6 5.5 81 1.4 CALM 0 0 0 0 - - 0.0
02/06:00pm 8.9 6.6 5.8 81 1.4 W 7 11 4 6 - - 0.0
02/05:30pm 9.4 6.7 5.7 78 1.7 SW 9 13 5 7 - - 0.0
02/05:00pm 9.8 6.7 5.7 75 1.9 SW 11 15 6 8 - - 0.0
02/04:30pm 10.6 7.5 5.6 71 2.3 SSW 11 17 6 9 - - 0.0
02/04:00pm 12.0 10.7 7.5 74 2.2 NNE 4 7 2 4 - - 0.0
02/03:30pm 12.3 11.5 6.7 68 2.7 CALM 0 0 0 0 - - 0.0
02/03:00pm 13.0 11.6 3.7 53 4.2 CALM 0 0 0 0 - - 0.0
02/02:30pm 13.3 11.0 4.6 55 4.0 NNW 6 7 3 4 - - 0.0
02/02:00pm 13.4 11.9 3.1 49 4.6 CALM 0 4 0 2 - - 0.0
02/01:30pm 13.3 11.4 3.0 49 4.6 N 2 6 1 3 - - 0.0
02/01:00pm 13.2 10.4 2.2 47 4.8 SW 6 9 3 5 - - 0.0
02/12:30pm 11.8 9.2 4.0 59 3.5 WSW 7 9 4 5 - - 0.0
02/12:00pm 11.1 9.5 4.5 64 3.0 W 2 6 1 3 - - 0.0
02/11:30am 9.1 8.0 4.9 75 1.9 CALM 0 6 0 3 - - 0.0
02/11:00am 7.0 6.0 5.7 91 0.6 CALM 0 6 0 3 - - 0.0
02/10:30am 6.3 4.8 4.9 91 0.6 NE 2 9 1 5 - - 0.0
02/10:00am 5.2 2.8 4.5 95 0.3 NW 6 7 3 4 - - 0.0
02/09:30am 4.7 3.4 4.2 97 0.2 CALM 0 0 0 0 - - 0.0
02/09:00am 4.3 3.0 4.1 99 0.1 CALM 0 0 0 0 - - 0.2
02/08:30am 3.9 1.4 3.9 100 0.0 ENE 6 7 3 4 - - 0.2
02/08:00am 3.6 1.1 3.6 100 0.0 NNE 6 9 3 5 - - 0.2
02/07:30am 3.0 -0.2 3.0 100 0.0 NNE 9 11 5 6 - - 0.2
02/07:00am 2.7 1.1 2.4 98 0.1 CALM 0 0 0 0 - - 0.2
02/06:30am 2.3 -0.7 2.0 98 0.1 NNE 7 9 4 5 - - 0.2
02/06:00am 2.3 -0.5 2.0 98 0.1 NE 6 9 3 5 - - 0.2
02/05:30am 2.0 -0.1 1.7 98 0.1 N 2 7 1 4 - - 0.2
02/05:00am 2.0 -0.9 1.7 98 0.1 NE 6 7 3 4 - - 0.2
02/04:30am 2.1 -0.9 1.8 98 0.1 NNE 7 9 4 5 - - 0.2
02/04:00am 2.6 -0.4 2.3 98 0.1 NE 7 11 4 6 - - 0.2
02/03:30am 3.0 0.3 2.8 99 0.1 NE 6 9 3 5 - - 0.2
02/03:00am 3.3 0.7 3.1 99 0.1 ENE 6 7 3 4 - - 0.2
02/02:30am 3.3 1.8 3.1 99 0.1 CALM 0 0 0 0 - - 0.2
02/02:00am 3.3 1.8 3.1 99 0.1 CALM 0 0 0 0 - - 0.2
02/01:30am 3.7 2.3 3.5 99 0.1 CALM 0 0 0 0 - - 0.2
02/01:00am 4.0 2.6 3.5 97 0.2 CALM 0 0 0 0 - - 0.2
02/12:30am 4.4 3.0 3.4 93 0.4 CALM 0 2 0 1 - - 0.2
02/12:00am 4.7 2.1 4.0 95 0.3 NNE 7 11 4 6 - - 0.2
 
Date/Time
EST
Temp
°C
App
Temp
°C
Dew
Point
Rel
Hum
%
Delta-T
°C
Wind Press
QNH
hPa
Press
MSL
hPa
Rain
since 9 am
mm
Dir
 
Spd
km/h
Gust
km/h
Spd
kts
Gust
kts
01/11:30pm 5.2 2.7 4.5 95 0.3 E 7 7 4 4 - - 0.2
01/11:00pm 4.8 2.3 4.6 99 0.1 N 7 7 4 4 - - 0.2
01/10:30pm 5.3 2.7 4.4 94 0.4 ENE 7 9 4 5 - - 0.2
01/10:00pm 5.1 2.5 4.4 95 0.3 NNE 7 9 4 5 - - 0.2
01/09:30pm 6.1 3.8 5.0 93 0.5 NNE 6 7 3 4 - - 0.2
01/09:00pm 6.8 4.6 5.5 91 0.6 NE 6 9 3 5 - - 0.2
01/08:30pm 7.2 4.9 5.9 91 0.6 NNE 7 11 4 6 - - 0.2
01/08:00pm 8.0 5.8 6.0 87 0.9 NNE 7 9 4 5 - - 0.2
01/07:30pm 8.4 5.4 5.8 84 1.2 NE 11 17 6 9 - - 0.2
01/07:00pm 8.3 5.7 5.9 85 1.1 NE 9 15 5 8 - - 0.2
01/06:30pm 9.1 6.5 6.1 81 1.4 NNE 9 13 5 7 - - 0.2
01/06:00pm 9.1 6.5 6.1 81 1.4 NE 9 13 5 7 - - 0.2
01/05:30pm 9.3 6.7 6.0 80 1.5 NE 9 15 5 8 - - 0.2
01/05:00pm 9.8 6.7 5.7 75 1.9 ENE 11 17 6 9 - - 0.2
01/04:30pm 10.3 6.1 5.7 73 2.1 E 17 22 9 12 - - 0.2
01/04:00pm 10.8 7.0 5.6 70 2.4 E 15 24 8 13 - - 0.2
01/03:30pm 11.4 8.4 6.1 70 2.5 ENE 11 17 6 9 - - 0.2
01/03:00pm 12.7 9.6 5.7 62 3.3 E 11 17 6 9 - - 0.2
01/02:30pm 12.5 9.5 5.9 64 3.1 E 11 19 6 10 - - 0.2
01/02:00pm 13.3 10.9 4.4 55 4.1 ESE 6 13 3 7 - - 0.2
01/01:30pm 12.8 10.5 5.0 59 3.6 SSE 6 9 3 5 - - 0.2
01/01:00pm 12.1 9.6 4.7 60 3.4 E 7 9 4 5 - - 0.0
01/12:30pm 11.6 9.3 5.6 66 2.8 SSW 7 13 4 7 - - 0.0
01/12:00pm 11.2 9.0 5.3 67 2.7 S 6 11 3 6 - - 0.0
01/11:30am 11.0 8.9 5.8 70 2.4 W 6 9 3 5 - - 0.0
01/11:00am 10.5 8.8 5.7 72 2.2 SW 4 7 2 4 - - 0.0
01/10:30am 8.8 6.9 4.8 76 1.8 WSW 4 7 2 4 - - 0.0
01/10:00am 8.4 6.5 4.8 78 1.6 ESE 4 6 2 3 - - 0.0
01/09:30am 8.2 7.1 5.1 81 1.4 CALM 0 0 0 0 - - 0.0
01/09:00am 7.4 6.3 4.9 84 1.1 CALM 0 0 0 0 - - 2.0
01/08:30am 6.8 5.9 5.9 94 0.4 CALM 0 0 0 0 - - 2.0
01/08:00am 6.3 5.4 5.9 97 0.2 CALM 0 0 0 0 - - 2.0

Other Formats:

Comma delimited format used in spreadsheet applications
http://www.bom.gov.au/fwo/IDT60801/IDT60801.95977.axf

JavaScript Object Notation format (JSON) in row-major order
http://www.bom.gov.au/fwo/IDT60801/IDT60801.95977.json